Time;durP1;ratioP1;P1;durP2;ratioP2;P2;SDS_P1;SDS_P2;PMS_P1;PMS_P2;Temp;Humidity;BMP_temperature;BMP_pressure;BME280_temperature;BME280_humidity;BME280_pressure;Samples;Min_cycle;Max_cycle;Signal;HPM_P1;HPM_P2
2021/01/14 00:01:13;;;;;;;10.30;8.52;;;5.00;99.90;;;;;;4977852;28;20633;-74
2021/01/14 00:03:40;;;;;;;9.98;8.65;;;4.90;99.90;;;;;;4976981;28;20210;-75
2021/01/14 00:06:06;;;;;;;13.23;8.57;;;4.90;99.90;;;;;;4977460;28;20313;-74
2021/01/14 00:08:34;;;;;;;9.80;8.40;;;4.90;99.90;;;;;;4977110;28;20253;-74
2021/01/14 00:11:00;;;;;;;8.85;7.60;;;4.90;99.90;;;;;;4977046;28;20229;-72
2021/01/14 00:13:27;;;;;;;9.10;8.20;;;4.90;99.90;;;;;;4974974;28;20329;-72
2021/01/14 00:15:56;;;;;;;9.68;7.55;;;4.90;99.90;;;;;;4976705;28;20214;-79
2021/01/14 00:18:22;;;;;;;10.07;8.77;;;4.90;99.90;;;;;;4978343;28;20230;-74
2021/01/14 00:20:49;;;;;;;11.95;8.35;;;4.90;99.90;;;;;;4981143;28;20268;-75
2021/01/14 00:23:15;;;;;;;11.60;8.13;;;4.90;99.90;;;;;;4979645;28;20290;-74
2021/01/14 00:25:42;;;;;;;9.43;7.90;;;4.90;99.90;;;;;;4987848;28;20209;-75
2021/01/14 00:28:08;;;;;;;9.32;7.43;;;4.90;99.90;;;;;;4994996;28;20198;-75
2021/01/14 00:30:35;;;;;;;10.48;7.85;;;4.90;99.90;;;;;;4991773;28;20226;-75
2021/01/14 00:33:01;;;;;;;8.43;7.05;;;4.90;99.90;;;;;;4995114;28;20212;-75
2021/01/14 00:35:28;;;;;;;8.98;7.45;;;4.90;99.90;;;;;;4968939;29;20307;-73
2021/01/14 00:37:55;;;;;;;8.30;6.90;;;4.90;99.90;;;;;;4977647;28;20205;-75
2021/01/14 00:40:26;;;;;;;10.80;7.60;;;4.80;99.70;;;;;;4981921;28;20210;-74
2021/01/14 00:43:15;;;;;;;8.35;7.25;;;4.80;99.50;;;;;;4978911;28;20209;-75
2021/01/14 00:45:43;;;;;;;9.68;7.82;;;4.80;99.40;;;;;;4976553;28;20209;-74
2021/01/14 00:48:26;;;;;;;9.15;7.47;;;4.80;99.50;;;;;;4977363;28;20213;-77
2021/01/14 00:50:52;;;;;;;7.93;6.65;;;4.80;99.40;;;;;;4976416;28;20317;-75
2021/01/14 00:53:19;;;;;;;7.43;6.43;;;4.90;99.00;;;;;;4974489;28;20220;-75
2021/01/14 00:55:56;;;;;;;8.27;6.60;;;4.80;98.50;;;;;;4976258;28;20229;-74
2021/01/14 00:58:23;;;;;;;7.53;6.47;;;4.80;97.70;;;;;;4979599;28;20241;-74
2021/01/14 01:01:24;;;;;;;7.25;6.45;;;4.80;97.30;;;;;;4978327;28;20260;-74
2021/01/14 01:04:03;;;;;;;7.00;5.55;;;4.80;96.80;;;;;;4977589;28;20655;-74
2021/01/14 01:06:34;;;;;;;6.10;4.60;;;4.80;95.70;;;;;;4977499;28;20264;-76
2021/01/14 01:09:00;;;;;;;4.28;3.70;;;4.70;94.20;;;;;;4978647;28;20214;-74
2021/01/14 01:11:31;;;;;;;3.40;3.08;;;4.60;93.20;;;;;;4979551;28;20230;-74
2021/01/14 01:14:38;;;;;;;3.33;2.78;;;4.60;91.20;;;;;;4979233;28;20197;-74
2021/01/14 01:17:17;;;;;;;2.85;2.33;;;4.60;90.00;;;;;;4970214;28;20575;-75
2021/01/14 01:19:44;;;;;;;2.80;2.38;;;4.50;86.00;;;;;;4978720;28;20365;-74
2021/01/14 01:22:13;;;;;;;1.90;1.80;;;4.40;84.20;;;;;;4978594;28;20300;-75
2021/01/14 01:24:40;;;;;;;2.90;2.10;;;4.50;81.00;;;;;;4979251;28;20663;-76
2021/01/14 01:27:09;;;;;;;1.98;1.88;;;4.40;80.90;;;;;;4978578;28;20810;-75
2021/01/14 01:29:49;;;;;;;2.85;1.85;;;4.40;79.00;;;;;;4979456;28;20233;-73
2021/01/14 01:32:15;;;;;;;1.40;1.30;;;4.30;77.70;;;;;;4978963;28;20228;-75
2021/01/14 01:34:45;;;;;;;2.03;1.90;;;4.30;77.00;;;;;;4979462;28;20244;-74
2021/01/14 01:37:11;;;;;;;1.60;0.98;;;4.30;76.60;;;;;;4982423;28;20203;-76
2021/01/14 01:39:38;;;;;;;1.60;1.10;;;4.30;75.30;;;;;;4981004;28;20206;-74
2021/01/14 01:42:04;;;;;;;1.35;1.25;;;4.20;73.60;;;;;;4984458;28;20273;-74
2021/01/14 01:44:31;;;;;;;1.30;0.95;;;4.10;73.60;;;;;;4980993;28;20300;-76
2021/01/14 01:47:03;;;;;;;1.60;1.23;;;4.10;73.90;;;;;;4979979;28;20753;-73
2021/01/14 01:49:37;;;;;;;1.42;1.33;;;4.10;74.10;;;;;;4984312;28;20194;-73
2021/01/14 01:52:04;;;;;;;1.30;1.08;;;4.00;74.60;;;;;;4974063;28;20268;-74
2021/01/14 01:54:32;;;;;;;2.40;1.42;;;4.00;75.20;;;;;;4981563;28;20222;-73
2021/01/14 01:57:00;;;;;;;0.90;0.90;;;3.90;75.80;;;;;;4981964;28;20205;-72
2021/01/14 01:59:30;;;;;;;0.90;0.90;;;3.90;75.90;;;;;;4977700;28;20355;-74
2021/01/14 02:01:56;;;;;;;1.60;1.20;;;3.80;76.30;;;;;;4977239;28;20225;-74
2021/01/14 02:04:23;;;;;;;1.10;1.00;;;3.80;77.20;;;;;;4977456;28;20210;-73
2021/01/14 02:06:55;;;;;;;0.85;0.85;;;3.80;78.30;;;;;;4975442;28;20224;-73
2021/01/14 02:09:24;;;;;;;1.48;1.20;;;3.80;78.60;;;;;;4977054;28;20582;-73
2021/01/14 02:12:11;;;;;;;2.75;1.13;;;3.80;79.30;;;;;;4977890;28;20249;-73
2021/01/14 02:14:38;;;;;;;2.42;1.25;;;3.70;78.90;;;;;;4978874;28;20210;-74
2021/01/14 02:17:05;;;;;;;1.90;1.30;;;3.70;80.30;;;;;;4978764;28;20587;-74
2021/01/14 02:19:40;;;;;;;1.45;1.35;;;3.80;80.40;;;;;;4979069;28;20251;-75
2021/01/14 02:22:13;;;;;;;1.50;1.13;;;3.80;80.40;;;;;;4980471;28;20457;-73
2021/01/14 02:24:43;;;;;;;2.35;1.55;;;3.80;80.40;;;;;;4979774;28;20213;-74
2021/01/14 02:27:11;;;;;;;1.38;1.27;;;3.80;80.40;;;;;;4981172;28;20229;-74
2021/01/14 02:29:39;;;;;;;1.65;1.55;;;3.80;81.10;;;;;;4982040;28;20681;-73
2021/01/14 02:32:15;;;;;;;1.80;1.70;;;3.80;81.20;;;;;;4978541;28;20229;-74
2021/01/14 02:34:41;;;;;;;1.20;1.10;;;3.80;81.40;;;;;;4974931;28;20206;-74
2021/01/14 02:37:07;;;;;;;1.88;1.30;;;3.70;81.60;;;;;;4974882;28;20233;-73
2021/01/14 02:39:45;;;;;;;1.95;1.60;;;3.70;82.70;;;;;;4975745;28;20210;-74
2021/01/14 02:42:12;;;;;;;2.10;1.60;;;3.70;83.70;;;;;;4974050;28;20253;-75
2021/01/14 02:44:39;;;;;;;1.65;1.25;;;3.70;84.40;;;;;;4974093;28;20697;-74
2021/01/14 02:47:07;;;;;;;1.70;1.60;;;3.70;85.50;;;;;;4973619;28;20705;-74
2021/01/14 02:49:44;;;;;;;2.35;1.63;;;3.60;86.00;;;;;;4974136;28;20253;-74
2021/01/14 02:52:12;;;;;;;1.85;1.50;;;3.50;87.30;;;;;;4974072;28;20272;-76
2021/01/14 02:54:40;;;;;;;1.80;1.60;;;3.50;88.40;;;;;;4974183;28;20271;-74
2021/01/14 02:57:07;;;;;;;1.80;1.70;;;3.50;88.40;;;;;;4973974;28;20570;-73
2021/01/14 02:59:35;;;;;;;2.40;1.58;;;3.50;88.50;;;;;;4975257;28;20355;-74
2021/01/14 03:02:01;;;;;;;2.45;1.88;;;3.50;90.00;;;;;;4973833;28;20680;-75
2021/01/14 03:04:27;;;;;;;1.25;1.15;;;3.50;90.00;;;;;;4974765;28;20217;-75
2021/01/14 03:06:54;;;;;;;1.83;1.65;;;3.50;90.00;;;;;;4973930;28;20276;-74
2021/01/14 03:09:20;;;;;;;1.98;1.77;;;3.50;90.30;;;;;;4974680;28;20202;-74
2021/01/14 03:11:46;;;;;;;2.13;1.92;;;3.40;90.60;;;;;;4974681;28;20228;-74
2021/01/14 03:14:30;;;;;;;2.60;2.40;;;3.40;91.00;;;;;;4975106;28;20290;-75
2021/01/14 03:17:00;;;;;;;1.98;1.73;;;3.40;91.50;;;;;;4976635;28;20594;-74
2021/01/14 03:19:28;;;;;;;2.90;2.50;;;3.40;92.00;;;;;;4974149;28;20205;-74
2021/01/14 07:18:28;;;;;;;8.98;6.00;;;2.00;99.90;;;;;;5571656;23;20330;-79
2021/01/14 07:20:57;;;;;;;9.05;6.00;;;1.90;99.90;;;;;;5004158;28;20211;-79
2021/01/14 07:23:26;;;;;;;11.38;7.00;;;1.90;99.90;;;;;;5002405;28;20200;-78
2021/01/14 07:25:54;;;;;;;8.63;6.90;;;2.00;99.90;;;;;;4998971;28;20212;-80
2021/01/14 07:28:21;;;;;;;7.25;5.60;;;2.00;99.90;;;;;;4999411;28;20243;-80
2021/01/14 07:30:47;;;;;;;8.95;6.35;;;2.00;99.90;;;;;;5019386;28;20247;-78
2021/01/14 11:23:52;;;;;;;15.02;4.70;;;2.90;77.80;;;;;;5849226;23;20195;-79
2021/01/14 11:26:20;;;;;;;11.00;5.00;;;2.90;78.10;;;;;;4995347;28;20240;-81
2021/01/14 11:28:47;;;;;;;6.60;4.55;;;2.80;77.80;;;;;;4985022;28;20295;-81
2021/01/14 11:31:15;;;;;;;4.47;3.67;;;2.90;77.10;;;;;;4989675;28;20239;-79
2021/01/14 11:33:43;;;;;;;6.78;3.88;;;2.80;77.10;;;;;;5002884;28;20557;-83
2021/01/14 11:36:12;;;;;;;15.02;6.47;;;2.80;76.60;;;;;;4980394;28;20202;-82
2021/01/14 11:51:34;;;;;;;4.70;3.53;;;2.70;75.80;;;;;;5007011;28;20636;-81
2021/01/14 12:01:05;;;;;;;7.20;4.15;;;2.90;75.50;;;;;;4901632;29;20187;-77
2021/01/14 12:03:33;;;;;;;9.85;4.55;;;2.80;75.40;;;;;;4902046;29;20443;-78
2021/01/14 12:05:59;;;;;;;6.80;4.65;;;2.90;75.40;;;;;;4901424;29;20196;-78
2021/01/14 12:08:27;;;;;;;9.88;4.88;;;2.90;75.10;;;;;;4900600;29;20224;-78
2021/01/14 12:10:54;;;;;;;12.00;4.07;;;3.00;75.50;;;;;;4900921;29;20196;-79
2021/01/14 12:13:24;;;;;;;5.95;4.10;;;2.90;74.00;;;;;;4901751;29;20240;-78
2021/01/14 12:25:54;;;;;;;7.47;5.25;;;3.30;73.60;;;;;;4828607;29;20232;-80
2021/01/14 12:28:40;;;;;;;8.00;5.13;;;3.30;72.60;;;;;;4813559;29;20303;-81
2021/01/14 12:52:01;;;;;;;5.15;4.38;;;3.20;70.40;;;;;;5015318;28;20250;-83
2021/01/14 12:54:29;;;;;;;9.88;4.53;;;3.30;70.70;;;;;;5016164;28;20220;-82
2021/01/14 12:56:56;;;;;;;8.82;4.25;;;3.30;71.60;;;;;;4999673;28;20201;-84
2021/01/14 12:59:22;;;;;;;6.88;4.88;;;3.30;71.60;;;;;;5007904;28;20212;-83
2021/01/14 13:01:48;;;;;;;6.85;4.95;;;3.30;71.60;;;;;;4993704;28;20244;-81
2021/01/14 13:04:16;;;;;;;6.22;4.88;;;3.20;71.70;;;;;;4987987;28;20213;-85
2021/01/14 13:07:24;;;;;;;5.10;4.60;;;3.30;71.90;;;;;;5011569;23;20499;-82
2021/01/14 13:09:54;;;;;;;5.93;3.97;;;3.20;72.40;;;;;;4947010;29;20218;-83
2021/01/14 13:12:27;;;;;;;8.88;4.60;;;3.20;72.40;;;;;;4968186;29;20769;-83
2021/01/14 13:14:54;;;;;;;4.85;3.92;;;3.10;72.50;;;;;;4968837;29;20241;-81
2021/01/14 13:20:36;;;;;;;6.90;3.72;;;3.00;73.70;;;;;;4998789;28;20198;-81
2021/01/14 13:23:02;;;;;;;6.00;4.32;;;2.90;73.40;;;;;;4981645;28;20201;-81
2021/01/14 13:25:29;;;;;;;4.93;3.33;;;2.90;73.40;;;;;;4977717;28;20226;-79
2021/01/14 13:28:00;;;;;;;7.95;4.05;;;2.90;72.70;;;;;;4975009;28;20254;-83
2021/01/14 13:30:26;;;;;;;9.90;3.90;;;3.00;71.70;;;;;;4979390;28;20221;-83
2021/01/14 13:32:53;;;;;;;4.25;3.85;;;3.00;71.30;;;;;;4978869;28;20190;-83
2021/01/14 13:35:20;;;;;;;10.90;4.32;;;2.90;71.70;;;;;;4980032;28;20233;-80
2021/01/14 13:37:46;;;;;;;6.30;4.10;;;3.00;71.30;;;;;;4977490;28;20245;-83
2021/01/14 13:40:14;;;;;;;4.38;3.55;;;3.20;71.50;;;;;;4971000;29;20289;-84
2021/01/14 13:45:28;;;;;;;5.32;4.22;;;3.10;71.40;;;;;;4978093;28;20249;-82
2021/01/14 13:47:55;;;;;;;6.25;4.85;;;3.10;71.40;;;;;;4980098;28;20226;-80
2021/01/14 13:50:22;;;;;;;7.50;4.78;;;3.00;72.30;;;;;;4978468;28;20213;-85
2021/01/14 13:52:48;;;;;;;5.25;4.30;;;2.90;72.90;;;;;;4970505;29;20206;-83
2021/01/14 13:55:15;;;;;;;5.75;4.50;;;2.90;74.10;;;;;;4970454;29;20610;-84
2021/01/14 13:57:42;;;;;;;8.23;5.70;;;3.00;74.50;;;;;;4976952;28;20201;-83
2021/01/14 14:00:10;;;;;;;7.60;4.90;;;3.10;74.70;;;;;;4980378;28;20269;-86
2021/01/14 14:02:37;;;;;;;6.05;4.60;;;3.00;74.50;;;;;;4979231;28;20253;-83
2021/01/14 14:05:05;;;;;;;6.35;4.95;;;3.00;74.90;;;;;;4970704;29;20238;-80
2021/01/14 14:07:32;;;;;;;13.25;5.80;;;3.00;75.10;;;;;;4977573;28;20237;-86
2021/01/14 14:09:58;;;;;;;6.75;5.10;;;3.10;75.00;;;;;;4980798;28;20737;-80
2021/01/14 14:12:25;;;;;;;10.88;4.90;;;3.10;74.50;;;;;;4978361;28;20210;-86
2021/01/14 14:14:53;;;;;;;7.80;5.32;;;3.00;74.40;;;;;;4980585;28;20208;-84
2021/01/14 14:17:20;;;;;;;8.00;5.20;;;3.20;75.10;;;;;;4979552;28;20210;-83
2021/01/14 14:19:46;;;;;;;9.98;5.57;;;3.20;74.40;;;;;;4975660;29;20222;-84
2021/01/14 14:22:13;;;;;;;7.60;5.45;;;3.20;74.30;;;;;;4976671;29;20227;-81
2021/01/14 14:24:40;;;;;;;6.05;4.95;;;3.20;74.40;;;;;;4971433;29;20206;-85
2021/01/14 14:27:07;;;;;;;7.95;5.45;;;3.20;74.50;;;;;;4968095;29;20221;-84
2021/01/14 14:29:33;;;;;;;11.65;5.50;;;3.20;73.60;;;;;;4971503;29;20214;-86
2021/01/14 14:32:16;;;;;;;7.80;5.72;;;3.30;73.70;;;;;;4969388;29;20241;-83
2021/01/14 14:34:42;;;;;;;11.35;5.78;;;3.40;72.60;;;;;;4970987;29;20225;-85
2021/01/14 14:37:09;;;;;;;8.15;5.93;;;3.40;72.50;;;;;;4971516;29;20221;-83
2021/01/14 14:39:39;;;;;;;10.23;6.95;;;3.10;72.90;;;;;;4980464;28;20195;-80
2021/01/14 14:42:07;;;;;;;9.27;6.55;;;3.00;74.50;;;;;;4980147;28;20257;-83
2021/01/14 14:44:35;;;;;;;9.77;6.13;;;3.00;74.70;;;;;;4978792;28;20274;-85
2021/01/14 14:50:28;;;;;;;8.48;5.97;;;3.30;73.80;;;;;;4958875;28;20195;-80
2021/01/14 14:52:54;;;;;;;10.93;6.40;;;3.20;74.30;;;;;;4959857;28;20212;-79
2021/01/14 14:55:26;;;;;;;8.30;5.75;;;3.20;73.90;;;;;;4959048;28;20257;-86
2021/01/14 14:57:52;;;;;;;5.60;4.50;;;3.20;73.80;;;;;;4956190;28;20241;-82
2021/01/14 15:00:19;;;;;;;9.60;5.88;;;3.20;74.10;;;;;;4949596;29;20214;-85
2021/01/14 15:02:46;;;;;;;8.85;5.60;;;3.10;74.90;;;;;;4948176;29;20214;-85
2021/01/14 15:05:13;;;;;;;10.23;4.82;;;3.20;74.70;;;;;;4946355;29;20231;-84
2021/01/14 15:07:40;;;;;;;6.35;4.80;;;3.10;74.50;;;;;;4949367;29;20268;-84
2021/01/14 15:10:07;;;;;;;7.15;5.20;;;3.20;73.70;;;;;;4948246;29;20222;-84
2021/01/14 15:12:34;;;;;;;6.07;4.97;;;3.20;73.90;;;;;;4948471;29;20294;-84
2021/01/14 15:15:00;;;;;;;5.75;4.55;;;3.30;73.30;;;;;;4946933;29;20278;-85
2021/01/14 15:17:27;;;;;;;8.35;4.82;;;3.30;71.60;;;;;;4948940;29;20270;-83
2021/01/14 15:19:53;;;;;;;8.23;5.20;;;3.20;71.50;;;;;;4954939;28;20194;-77
2021/01/14 15:22:19;;;;;;;7.70;5.88;;;2.90;72.70;;;;;;4958550;28;20202;-81
2021/01/14 15:24:47;;;;;;;9.70;7.68;;;2.80;75.10;;;;;;4945077;28;20206;-80
2021/01/14 15:27:14;;;;;;;7.43;6.15;;;2.90;75.40;;;;;;4951288;28;20205;-80
2021/01/14 15:29:40;;;;;;;9.48;5.97;;;2.90;75.40;;;;;;4941593;28;20207;-81
2021/01/14 15:32:07;;;;;;;11.43;5.75;;;2.80;76.10;;;;;;4954426;28;20244;-80
2021/01/14 15:34:34;;;;;;;7.93;6.20;;;2.70;76.90;;;;;;4950254;28;20195;-79
2021/01/14 15:37:01;;;;;;;10.07;5.93;;;2.70;78.10;;;;;;4954650;28;20214;-80
2021/01/14 15:39:27;;;;;;;10.48;6.13;;;2.70;79.50;;;;;;4956600;28;20242;-79
2021/01/14 15:41:55;;;;;;;8.95;6.20;;;2.60;79.40;;;;;;4957528;28;20206;-80
2021/01/14 15:44:21;;;;;;;9.38;6.68;;;2.60;80.80;;;;;;4958438;28;20191;-79
2021/01/14 15:46:47;;;;;;;8.30;5.97;;;2.60;81.40;;;;;;4943079;28;20215;-81
2021/01/14 15:49:14;;;;;;;9.48;5.72;;;2.60;81.00;;;;;;4955002;29;20218;-79
2021/01/14 15:52:08;;;;;;;6.75;5.10;;;2.50;82.30;;;;;;4936915;28;20239;-80
2021/01/14 16:01:58;;;;;;;8.13;5.57;;;2.40;83.20;;;;;;4870314;29;20249;-80
2021/01/14 16:04:40;;;;;;;8.57;5.38;;;2.30;83.70;;;;;;4874326;29;20201;-80
2021/01/14 16:07:14;;;;;;;10.07;6.32;;;2.20;86.30;;;;;;4879086;29;20229;-80
2021/01/14 16:09:45;;;;;;;12.23;6.90;;;2.20;87.20;;;;;;4882861;29;20208;-80
2021/01/14 16:12:13;;;;;;;12.23;7.38;;;2.10;87.30;;;;;;4854952;29;20241;-79
2021/01/14 16:17:39;;;;;;;12.68;8.20;;;2.00;88.70;;;;;;4901798;29;20306;-82
2021/01/14 16:20:14;;;;;;;10.38;8.13;;;2.00;89.10;;;;;;4899592;29;20369;-82
2021/01/14 16:22:45;;;;;;;12.18;7.20;;;2.00;89.10;;;;;;4900505;29;20352;-81
2021/01/14 16:25:30;;;;;;;14.73;8.48;;;2.00;89.30;;;;;;4889717;29;20293;-81
2021/01/14 16:28:00;;;;;;;12.45;8.07;;;2.00;88.60;;;;;;4883147;29;20292;-81
2021/01/14 16:33:16;;;;;;;14.30;8.90;;;2.00;89.40;;;;;;4882937;29;20201;-82
2021/01/14 16:35:47;;;;;;;14.05;8.13;;;1.90;88.90;;;;;;4890589;29;20248;-82
2021/01/14 16:38:16;;;;;;;13.25;7.63;;;1.90;89.30;;;;;;4901149;29;20193;-81
2021/01/14 16:40:46;;;;;;;10.75;7.07;;;2.00;89.60;;;;;;4905211;29;20192;-83
2021/01/14 16:43:14;;;;;;;12.48;8.48;;;1.90;89.00;;;;;;4917421;29;20192;-81
2021/01/14 16:45:43;;;;;;;9.90;6.90;;;1.90;88.50;;;;;;4918919;29;20302;-80
2021/01/14 16:48:18;;;;;;;10.65;7.40;;;1.90;89.00;;;;;;4917629;29;20231;-81
2021/01/14 16:51:10;;;;;;;10.40;7.35;;;1.90;89.00;;;;;;4895579;29;20270;-81
2021/01/14 16:53:55;;;;;;;10.63;6.97;;;1.90;88.50;;;;;;4911261;29;20304;-81
2021/01/14 16:59:45;;;;;;;9.75;6.95;;;1.90;87.00;;;;;;4911382;29;20193;-81
2021/01/14 17:02:20;;;;;;;14.43;7.50;;;2.00;87.10;;;;;;4916872;29;20211;-81
2021/01/14 17:05:19;;;;;;;12.77;7.45;;;1.90;86.60;;;;;;4966121;29;20193;-83
2021/01/14 17:08:01;;;;;;;7.43;5.80;;;2.00;87.10;;;;;;4976959;29;20261;-84
2021/01/14 17:13:26;;;;;;;7.05;4.18;;;1.90;80.10;;;;;;4977439;28;20205;-82
2021/01/14 17:18:41;;;;;;;7.32;3.72;;;2.00;72.60;;;;;;4975766;29;20190;-80
2021/01/14 17:21:18;;;;;;;3.83;3.00;;;2.00;69.20;;;;;;4981768;28;20225;-82
2021/01/14 17:23:54;;;;;;;4.63;2.90;;;2.00;68.30;;;;;;4996424;28;20201;-83
2021/01/14 17:26:30;;;;;;;3.03;2.72;;;2.00;65.90;;;;;;4991497;28;20232;-80
2021/01/14 17:29:04;;;;;;;3.60;2.65;;;2.10;64.20;;;;;;4986532;28;20233;-84
2021/01/14 17:31:33;;;;;;;2.80;2.45;;;2.00;63.50;;;;;;4986674;28;20217;-81
2021/01/14 17:34:04;;;;;;;7.53;3.00;;;2.10;62.70;;;;;;4982845;28;20284;-82
2021/01/14 17:36:34;;;;;;;5.18;3.03;;;2.10;62.20;;;;;;4986272;28;20288;-82
2021/01/14 17:39:07;;;;;;;5.40;3.22;;;2.00;61.80;;;;;;4995279;28;20209;-85
2021/01/14 17:41:38;;;;;;;3.75;2.70;;;2.00;62.30;;;;;;4996664;28;20213;-84
2021/01/14 17:44:12;;;;;;;3.15;2.40;;;2.00;61.80;;;;;;4998281;28;20192;-81
2021/01/14 17:46:40;;;;;;;3.00;2.67;;;2.00;61.80;;;;;;5000252;28;20245;-87
2021/01/14 17:49:10;;;;;;;5.22;2.40;;;1.90;61.70;;;;;;5001852;28;20213;-86
2021/01/14 17:51:38;;;;;;;6.63;2.45;;;1.90;61.70;;;;;;5001355;28;20204;-82
2021/01/14 17:54:08;;;;;;;3.28;2.80;;;1.90;61.70;;;;;;5001581;28;20196;-82
2021/01/14 17:56:38;;;;;;;7.03;3.03;;;1.90;61.70;;;;;;5001258;28;20220;-81
2021/01/14 17:59:09;;;;;;;3.60;2.58;;;1.90;61.70;;;;;;5000846;28;20202;-82
2021/01/14 18:01:37;;;;;;;4.40;2.80;;;2.00;62.80;;;;;;5000440;28;20229;-85
2021/01/14 18:04:10;;;;;;;5.38;3.40;;;1.90;61.70;;;;;;5001927;28;20181;-86
2021/01/14 18:06:40;;;;;;;3.65;2.92;;;1.90;62.40;;;;;;5001825;28;20304;-83
2021/01/14 18:09:09;;;;;;;3.63;2.65;;;1.90;61.70;;;;;;5001496;28;20252;-86
2021/01/14 18:11:46;;;;;;;3.40;2.95;;;1.90;61.70;;;;;;5001116;28;20185;-83
2021/01/14 18:14:23;;;;;;;3.05;2.75;;;2.00;62.90;;;;;;5000984;28;20221;-82
2021/01/14 18:16:54;;;;;;;4.18;2.85;;;2.00;61.80;;;;;;4998414;28;20247;-84
2021/01/14 18:19:28;;;;;;;3.13;2.50;;;1.90;61.70;;;;;;4998857;28;20204;-86
2021/01/14 18:21:58;;;;;;;4.03;2.53;;;1.80;62.60;;;;;;5000060;28;20480;-84
2021/01/14 18:24:26;;;;;;;2.88;2.58;;;1.90;62.90;;;;;;4989864;28;20232;-83
2021/01/14 18:26:54;;;;;;;2.90;2.60;;;1.80;62.90;;;;;;4984828;28;20724;-78
2021/01/14 18:29:21;;;;;;;3.15;2.85;;;1.80;62.70;;;;;;4984110;28;20242;-79
2021/01/14 18:31:51;;;;;;;3.38;2.25;;;1.80;63.90;;;;;;4979357;28;20270;-80
2021/01/14 18:34:17;;;;;;;3.80;2.60;;;1.90;63.50;;;;;;4980048;28;20206;-77
2021/01/14 18:36:45;;;;;;;6.45;2.70;;;1.90;63.70;;;;;;4979321;28;20236;-78
2021/01/14 18:39:12;;;;;;;3.90;2.25;;;1.90;63.00;;;;;;4979837;28;20205;-81
2021/01/14 18:41:40;;;;;;;3.13;2.70;;;1.80;62.80;;;;;;4967594;29;20202;-81
2021/01/14 18:44:07;;;;;;;3.63;2.80;;;1.80;63.30;;;;;;4969773;29;20213;-80
2021/01/14 18:46:34;;;;;;;3.15;2.80;;;1.80;63.30;;;;;;4952673;29;20225;-81
2021/01/14 18:49:09;;;;;;;4.43;3.22;;;1.80;63.30;;;;;;4969116;28;20226;-79
2021/01/14 18:51:39;;;;;;;4.85;3.17;;;1.90;63.70;;;;;;4969539;29;20285;-79
2021/01/14 18:54:15;;;;;;;5.22;3.08;;;1.80;63.60;;;;;;4968358;29;20230;-81
2021/01/14 18:56:46;;;;;;;3.00;2.42;;;1.80;63.60;;;;;;4964887;29;20701;-80
2021/01/14 18:59:24;;;;;;;4.50;3.35;;;1.80;63.80;;;;;;4968552;29;20686;-79
2021/01/14 19:07:44;;;;;;;2.95;2.75;;;1.80;65.20;;;;;;4967045;29;20218;-82
2021/01/14 19:10:12;;;;;;;3.75;3.00;;;1.90;64.70;;;;;;4965370;29;20222;-81
2021/01/14 19:12:44;;;;;;;3.88;2.80;;;1.90;64.80;;;;;;4965400;29;20233;-83
2021/01/14 19:15:12;;;;;;;4.63;3.10;;;2.00;63.50;;;;;;4967360;29;20325;-83
2021/01/14 19:17:40;;;;;;;2.58;2.38;;;2.00;63.10;;;;;;4965795;29;20207;-82
2021/01/14 19:20:09;;;;;;;4.40;2.88;;;2.00;63.60;;;;;;4965489;29;20210;-82
2021/01/14 19:22:42;;;;;;;3.35;3.05;;;1.90;63.80;;;;;;4968938;29;20249;-82
2021/01/14 19:25:11;;;;;;;3.78;3.05;;;1.90;63.60;;;;;;4966841;29;20264;-81
2021/01/14 19:27:41;;;;;;;3.30;3.00;;;1.90;64.00;;;;;;4968187;29;20300;-83
2021/01/14 19:30:09;;;;;;;6.30;3.70;;;1.90;64.70;;;;;;4969489;29;20276;-83
2021/01/14 19:32:38;;;;;;;6.68;3.50;;;1.90;64.50;;;;;;4965342;28;20210;-83
2021/01/14 19:35:10;;;;;;;4.75;3.65;;;1.80;64.80;;;;;;4966236;29;20630;-82
2021/01/14 19:37:47;;;;;;;5.65;3.63;;;1.90;64.90;;;;;;4984218;28;20309;-81
2021/01/14 19:40:21;;;;;;;4.15;3.75;;;1.90;64.70;;;;;;4986125;28;20213;-81
2021/01/14 19:42:54;;;;;;;4.10;3.70;;;1.90;64.90;;;;;;4985633;28;20209;-80
2021/01/14 19:48:19;;;;;;;4.50;4.05;;;1.90;65.40;;;;;;4997400;28;20201;-85
2021/01/14 19:50:55;;;;;;;6.28;4.00;;;1.80;65.50;;;;;;4998316;28;20173;-84
2021/01/14 19:53:27;;;;;;;5.78;3.50;;;1.90;66.00;;;;;;4997532;28;20216;-84
2021/01/14 19:55:56;;;;;;;5.25;3.75;;;1.80;66.10;;;;;;4997975;28;20285;-86
2021/01/14 20:03:35;;;;;;;4.88;3.70;;;1.80;65.40;;;;;;5317014;23;20227;-76
2021/01/14 20:06:01;;;;;;;4.03;3.15;;;1.80;66.00;;;;;;5000372;28;20278;-78
2021/01/14 20:08:27;;;;;;;4.82;4.00;;;1.80;65.10;;;;;;4990900;28;20283;-76
2021/01/14 20:10:54;;;;;;;4.25;3.20;;;1.80;65.40;;;;;;4995291;28;20216;-77
2021/01/14 20:13:21;;;;;;;4.32;3.90;;;1.80;64.80;;;;;;5000185;28;20246;-78
2021/01/14 20:15:47;;;;;;;4.22;3.45;;;1.90;65.10;;;;;;4998420;28;20240;-76
2021/01/14 21:29:22;;;;;;;11.98;8.77;;;1.90;68.80;;;;;;5006773;28;20224;-80
2021/01/14 21:31:49;;;;;;;11.00;8.25;;;1.90;68.30;;;;;;5007184;28;20235;-79
2021/01/14 21:34:16;;;;;;;12.20;8.27;;;1.90;68.50;;;;;;5013032;28;20219;-79
2021/01/14 21:36:42;;;;;;;19.40;9.23;;;1.80;69.10;;;;;;5011613;28;20231;-80
2021/01/14 21:39:10;;;;;;;11.50;8.20;;;1.90;70.00;;;;;;5036311;23;20237;-76
2021/01/14 21:41:36;;;;;;;13.95;9.60;;;1.90;69.80;;;;;;4985936;28;20410;-77
2021/01/14 21:44:04;;;;;;;11.55;9.30;;;1.90;69.90;;;;;;4991961;28;20211;-76
2021/01/14 21:46:32;;;;;;;15.60;9.60;;;2.00;69.60;;;;;;5002330;28;20295;-76
2021/01/14 21:48:59;;;;;;;13.80;9.80;;;2.00;69.50;;;;;;5003684;28;20292;-76
2021/01/14 21:51:26;;;;;;;15.10;9.45;;;1.90;69.70;;;;;;5001787;28;20252;-75
2021/01/14 21:53:53;;;;;;;16.00;9.55;;;2.00;70.50;;;;;;4999440;28;20201;-75
2021/01/14 21:56:27;;;;;;;13.68;9.85;;;2.00;70.50;;;;;;4990562;28;20241;-76
2021/01/14 21:58:54;;;;;;;13.48;9.60;;;2.00;70.30;;;;;;4968129;28;20243;-75
2021/01/14 22:01:21;;;;;;;17.80;10.18;;;2.00;70.50;;;;;;5001395;28;20212;-75
2021/01/14 22:03:48;;;;;;;14.40;10.27;;;2.00;70.50;;;;;;4998690;28;20262;-75
2021/01/14 22:06:15;;;;;;;15.80;10.27;;;2.00;70.50;;;;;;4981084;28;20237;-75
2021/01/14 22:08:42;;;;;;;13.57;9.43;;;1.90;70.40;;;;;;4981436;28;20237;-75
2021/01/14 22:11:08;;;;;;;18.73;10.50;;;2.00;70.50;;;;;;5001348;28;20312;-74
2021/01/14 22:13:35;;;;;;;11.73;10.10;;;2.00;69.80;;;;;;5001386;28;20707;-75
2021/01/14 22:16:03;;;;;;;15.52;10.15;;;1.90;69.80;;;;;;5000521;28;20266;-76
2021/01/14 22:18:29;;;;;;;15.73;9.63;;;1.90;70.40;;;;;;5001688;28;20229;-74
2021/01/14 22:20:57;;;;;;;12.07;8.55;;;1.90;69.90;;;;;;5000361;28;20207;-76
2021/01/14 22:23:23;;;;;;;13.02;9.55;;;1.90;69.80;;;;;;4998816;28;20285;-77
2021/01/14 22:25:51;;;;;;;11.63;9.55;;;1.90;69.10;;;;;;4994981;28;20205;-75
2021/01/14 22:28:17;;;;;;;15.10;8.88;;;1.90;68.10;;;;;;5006328;28;20256;-76
2021/01/14 22:30:44;;;;;;;10.88;8.43;;;2.00;68.50;;;;;;5003016;28;20653;-75
2021/01/14 22:33:10;;;;;;;12.70;8.50;;;2.00;66.80;;;;;;5003881;28;20617;-75
2021/01/14 22:35:37;;;;;;;10.38;8.20;;;2.00;67.20;;;;;;5010758;28;20335;-76
2021/01/14 22:38:05;;;;;;;14.35;9.73;;;1.90;66.00;;;;;;4985871;28;20264;-75
2021/01/14 22:40:35;;;;;;;15.52;8.52;;;2.00;66.20;;;;;;4984487;28;20217;-76
2021/01/14 22:43:02;;;;;;;16.27;8.77;;;1.90;66.00;;;;;;4982858;28;20210;-76
2021/01/14 22:45:28;;;;;;;12.15;7.50;;;2.00;66.00;;;;;;4979667;28;20209;-77
2021/01/14 22:47:55;;;;;;;15.05;8.63;;;2.00;65.40;;;;;;4962993;28;20760;-77
2021/01/14 22:50:21;;;;;;;10.90;6.80;;;2.00;65.00;;;;;;4962174;29;20256;-77
2021/01/14 22:52:48;;;;;;;16.77;7.88;;;2.00;64.80;;;;;;4969910;28;20221;-75
2021/01/14 22:55:15;;;;;;;8.32;7.35;;;1.90;64.40;;;;;;4976945;28;20678;-76
2021/01/14 22:57:42;;;;;;;13.45;7.05;;;1.90;64.20;;;;;;4966800;28;20273;-76
2021/01/14 23:00:11;;;;;;;19.42;7.93;;;2.00;64.50;;;;;;4956783;29;20238;-74
2021/01/14 23:02:42;;;;;;;14.23;7.55;;;1.90;63.80;;;;;;4962679;28;20225;-75
2021/01/14 23:05:11;;;;;;;11.93;6.97;;;2.00;63.70;;;;;;4975818;28;20486;-76
2021/01/14 23:07:43;;;;;;;13.13;8.15;;;1.90;62.80;;;;;;4980090;28;20200;-76
2021/01/14 23:10:10;;;;;;;17.90;8.50;;;1.90;62.90;;;;;;4990685;28;20225;-74
2021/01/14 23:12:40;;;;;;;11.40;7.03;;;1.90;62.50;;;;;;4975272;28;20425;-76
2021/01/14 23:15:08;;;;;;;11.70;7.57;;;1.90;61.70;;;;;;4990862;28;20264;-75
2021/01/14 23:17:34;;;;;;;19.08;8.07;;;1.90;61.70;;;;;;4973769;28;20209;-76
2021/01/14 23:20:01;;;;;;;10.50;6.97;;;1.90;61.70;;;;;;4976633;28;20221;-75
2021/01/14 23:22:27;;;;;;;9.50;7.15;;;1.90;61.70;;;;;;4975279;28;20220;-76
2021/01/14 23:24:53;;;;;;;9.43;7.35;;;1.90;61.70;;;;;;4985559;28;20208;-75
2021/01/14 23:27:20;;;;;;;9.63;6.88;;;1.90;61.70;;;;;;4967610;28;20216;-78
2021/01/14 23:29:47;;;;;;;10.18;6.75;;;1.90;61.70;;;;;;4974169;28;20228;-75
2021/01/14 23:32:14;;;;;;;10.30;7.07;;;1.80;61.60;;;;;;4994873;28;20213;-74
2021/01/14 23:34:40;;;;;;;12.43;7.13;;;1.80;61.60;;;;;;4985934;28;20615;-76
2021/01/14 23:37:07;;;;;;;10.48;6.45;;;1.80;61.60;;;;;;4963481;28;20206;-75
2021/01/14 23:39:36;;;;;;;9.35;7.20;;;1.70;61.50;;;;;;4983129;28;20354;-76